Alma Center, WI

4:48 AM CDT on July 31, 2016 (GMT -0500)
Black River Falls Area | | Change Station

Elev 837 ft 44.25 °N, 90.86 °W | Updated 13 minutes ago

Overcast
Overcast
57 °F
Feels Like 57 °F
N
0
Wind Variable Wind from North

Today
High -- | Low -- °F
--% Chance of Precip.
Yesterday
High -- | Low -- °F
Precip. -- in
Pressure 30.05 in
Visibility 7.0 miles
Clouds Overcast 12000 ft
Dew Point 57 °F
Humidity 100%
Rainfall 0.00 in
Snow Depth Not available.
5:50 AM 8:29 PM
Waning Crescent, 7% visible
METAR KBCK 310935Z AUTO 00000KT 7SM OVC120 14/14 A3005 RMK AO2 T01370137
Pressure 30.05 in
Visibility 7.0 miles
Clouds Overcast 12000 ft
Dew Point 57 °F
Humidity 100%
Rainfall 0.00 in
Snow Depth Not available.
5:50 AM 8:29 PM
Waning Crescent, 7% visible
METAR KBCK 310935Z AUTO 00000KT 7SM OVC120 14/14 A3005 RMK AO2 T01370137

10-Day Weather Forecast

Almanac

Astronomy

Jul. 31, 2016 Rise Set
Actual Time
Civil Twilight
Nautical Twilight
Astronomical Twilight
Moon
Length of Visible Light
Length of Day
Tomorrow will be .
, % of the Moon is Illuminated

Today's Extremes

State Highs State Lows

Community

WunderPhotos

Upload Photos

1,928,776 photos uploaded!

WunderBlog® & News

Nearby

Air Quality

  Air Quality AQ Index Pollutant
Not available.

Snow Depth

Station Depth Elevation

Earthquake Activity

City Distance Mag. Time & Date
Minimum magnitude displayed is 2.5.

Coastal Water Temperatures

Place Temperature

Stations

Nearby Weather Stations

Station Location Temp. Windchill Dew Point Humidity Wind Precip. Elev Updated Type
                   

Watches & Warnings

There are currently no watches in effect.